Time;durP1;ratioP1;P1;durP2;ratioP2;P2;SDS_P1;SDS_P2;PMS_P1;PMS_P2;Temp;Humidity;BMP_temperature;BMP_pressure;BME280_temperature;BME280_humidity;BME280_pressure;Samples;Min_cycle;Max_cycle;Signal;HPM_P1;HPM_P2
2023/05/11 00:01:51;;;;;;;;;;;;;;;;;;2218258;58;3098;-24
2023/05/11 00:04:21;;;;;;;;;;;;;;;;;;2218498;58;3282;-24
2023/05/11 00:06:51;;;;;;;;;;;;;;;;;;2218571;58;2892;-24
2023/05/11 00:09:21;;;;;;;;;;;;;;;;;;2218416;58;2715;-24
2023/05/11 00:11:52;;;;;;;;;;;;;;;;;;2218824;58;2416;-24
2023/05/11 00:14:22;;;;;;;;;;;;;;;;;;2217578;58;2314;-24
2023/05/11 00:19:30;;;;;;;;;;;;;;;;;;2197985;59;2309;-21
2023/05/11 00:22:00;;;;;;;;;;;;;;;;;;2200123;59;3071;-21
2023/05/11 00:24:30;;;;;;;;;;;;;;;;;;2201206;59;3073;-21
2023/05/11 00:27:01;;;;;;;;;;;;;;;;;;2201306;59;2834;-21
2023/05/11 00:29:31;;;;;;;;;;;;;;;;;;2202225;59;2501;-21
2023/05/11 00:32:01;;;;;;;;;;;;;;;;;;2202713;59;2961;-21
2023/05/11 00:34:31;;;;;;;;;;;;;;;;;;2203572;59;3245;-21
2023/05/11 00:37:01;;;;;;;;;;;;;;;;;;2201950;59;2569;-21
2023/05/11 00:39:37;;;;;;;;;;;;;;;;;;2206162;58;2940;-21
2023/05/11 00:42:10;;;;;;;;;;;;;;;;;;2201775;59;2714;-21
2023/05/11 00:44:41;;;;;;;;;;;;;;;;;;2204187;58;2706;-21
2023/05/11 00:47:11;;;;;;;;;;;;;;;;;;2201947;59;3184;-21
2023/05/11 00:49:41;;;;;;;;;;;;;;;;;;2202313;59;3068;-21
2023/05/11 00:52:12;;;;;;;;;;;;;;;;;;2204399;59;2061;-21
2023/05/11 00:54:44;;;;;;;;;;;;;;;;;;2201666;59;3480;-21
2023/05/11 00:57:15;;;;;;;;;;;;;;;;;;2203008;59;3002;-21
2023/05/11 00:59:47;;;;;;;;;;;;;;;;;;2204084;59;2862;-21
2023/05/11 01:02:17;;;;;;;;;;;;;;;;;;2201345;59;2978;-21
2023/05/11 01:04:47;;;;;;;;;;;;;;;;;;2203982;59;3103;-21
2023/05/11 01:07:17;;;;;;;;;;;;;;;;;;2204371;58;2596;-21
2023/05/11 01:09:58;;;;;;;;;;;;;;;;;;2204829;59;3111;-21
2023/05/11 01:12:35;;;;;;;;;;;;;;;;;;2203412;59;2604;-21
2023/05/11 01:15:09;;;;;;;;;;;;;;;;;;2203609;59;3067;-21
2023/05/11 01:17:39;;;;;;;;;;;;;;;;;;2204459;59;2491;-21
2023/05/11 01:20:11;;;;;;;;;;;;;;;;;;2203634;59;2149;-21
2023/05/11 01:23:08;;;;;;;;;;;;;;;;;;2204771;59;2210;-21
2023/05/11 01:25:38;;;;;;;;;;;;;;;;;;2198221;59;2734;-21
2023/05/11 01:28:18;;;;;;;;;;;;;;;;;;2201004;59;3149;-21
2023/05/11 01:30:56;;;;;;;;;;;;;;;;;;2202613;66;2355;-21
2023/05/11 01:33:29;;;;;;;;;;;;;;;;;;2202876;66;2199;-21
2023/05/11 01:36:03;;;;;;;;;;;;;;;;;;2201190;59;2970;-21
2023/05/11 01:38:36;;;;;;;;;;;;;;;;;;2203535;60;2941;-21
2023/05/11 01:41:26;;;;;;;;;;;;;;;;;;2202341;66;2801;-21
2023/05/11 01:43:59;;;;;;;;;;;;;;;;;;2202304;66;2534;-21
2023/05/11 01:46:30;;;;;;;;;;;;;;;;;;2200760;66;2684;-21
2023/05/11 01:49:04;;;;;;;;;;;;;;;;;;2201750;66;3490;-21
2023/05/11 01:51:36;;;;;;;;;;;;;;;;;;2203668;59;2612;-21
2023/05/11 01:54:08;;;;;;;;;;;;;;;;;;2206923;66;2587;-21
2023/05/11 01:56:40;;;;;;;;;;;;;;;;;;2202482;66;2727;-21
2023/05/11 01:59:11;;;;;;;;;;;;;;;;;;2202017;58;3010;-21
2023/05/11 02:01:42;;;;;;;;;;;;;;;;;;2203512;58;2992;-21
2023/05/11 02:04:13;;;;;;;;;;;;;;;;;;2201331;59;2612;-21
2023/05/11 02:06:44;;;;;;;;;;;;;;;;;;2200991;66;3438;-21
2023/05/11 02:09:16;;;;;;;;;;;;;;;;;;2202940;66;1809;-21
2023/05/11 02:11:47;;;;;;;;;;;;;;;;;;2202414;66;3121;-21
2023/05/11 02:14:19;;;;;;;;;;;;;;;;;;2204533;66;2864;-21
2023/05/11 02:16:49;;;;;;;;;;;;;;;;;;2202136;66;3258;-22
2023/05/11 02:19:20;;;;;;;;;;;;;;;;;;2203546;66;3168;-21
2023/05/11 02:21:51;;;;;;;;;;;;;;;;;;2201899;59;2978;-22
2023/05/11 02:24:23;;;;;;;;;;;;;;;;;;2204526;66;2729;-21
2023/05/11 02:26:53;;;;;;;;;;;;;;;;;;2203009;66;2895;-22
2023/05/11 02:29:24;;;;;;;;;;;;;;;;;;2203244;66;2235;-21
2023/05/11 02:31:55;;;;;;;;;;;;;;;;;;2204484;66;3418;-22
2023/05/11 02:34:27;;;;;;;;;;;;;;;;;;2203521;66;2752;-22
2023/05/11 02:37:06;;;;;;;;;;;;;;;;;;2200492;66;3086;-22
2023/05/11 02:39:37;;;;;;;;;;;;;;;;;;2203023;59;2703;-22
2023/05/11 02:42:18;;;;;;;;;;;;;;;;;;2203378;66;2572;-22
2023/05/11 02:44:59;;;;;;;;;;;;;;;;;;2205291;66;2076;-22
2023/05/11 02:47:32;;;;;;;;;;;;;;;;;;2203162;66;2558;-22
2023/05/11 02:50:03;;;;;;;;;;;;;;;;;;2204433;66;2306;-22
2023/05/11 02:52:35;;;;;;;;;;;;;;;;;;2203431;59;2658;-22
2023/05/11 02:55:06;;;;;;;;;;;;;;;;;;2202336;66;3398;-22
2023/05/11 02:57:37;;;;;;;;;;;;;;;;;;2204911;59;2687;-22
2023/05/11 03:00:09;;;;;;;;;;;;;;;;;;2204015;59;3021;-22
2023/05/11 03:02:39;;;;;;;;;;;;;;;;;;2204961;59;1761;-22
2023/05/11 03:05:09;;;;;;;;;;;;;;;;;;2202315;66;2023;-22
2023/05/11 03:07:40;;;;;;;;;;;;;;;;;;2203876;66;3061;-22
2023/05/11 03:10:10;;;;;;;;;;;;;;;;;;2205433;66;1786;-22
2023/05/11 03:12:41;;;;;;;;;;;;;;;;;;2202669;66;2171;-22
2023/05/11 03:15:14;;;;;;;;;;;;;;;;;;2202647;66;2762;-22
2023/05/11 03:17:45;;;;;;;;;;;;;;;;;;2204217;59;2657;-22
2023/05/11 03:20:15;;;;;;;;;;;;;;;;;;2203902;59;3155;-22
2023/05/11 03:22:46;;;;;;;;;;;;;;;;;;2202432;67;2522;-22
2023/05/11 03:25:17;;;;;;;;;;;;;;;;;;2202632;66;2562;-23
2023/05/11 03:27:49;;;;;;;;;;;;;;;;;;2203669;66;2637;-23
2023/05/11 03:30:21;;;;;;;;;;;;;;;;;;2203081;66;2816;-23
2023/05/11 03:32:51;;;;;;;;;;;;;;;;;;2201824;66;2951;-23
2023/05/11 03:35:24;;;;;;;;;;;;;;;;;;2203147;66;2383;-23
2023/05/11 03:37:56;;;;;;;;;;;;;;;;;;2202850;66;3047;-23
2023/05/11 03:40:28;;;;;;;;;;;;;;;;;;2203982;66;2894;-23
2023/05/11 03:43:02;;;;;;;;;;;;;;;;;;2204216;66;3031;-23
2023/05/11 03:45:34;;;;;;;;;;;;;;;;;;2203300;66;2104;-23
2023/05/11 03:48:05;;;;;;;;;;;;;;;;;;2202310;59;2954;-23
2023/05/11 03:50:36;;;;;;;;;;;;;;;;;;2202367;66;2900;-23
2023/05/11 03:53:07;;;;;;;;;;;;;;;;;;2201563;59;2700;-23
2023/05/11 03:55:37;;;;;;;;;;;;;;;;;;2202912;59;2741;-23
2023/05/11 03:58:08;;;;;;;;;;;;;;;;;;2203546;59;3419;-23
2023/05/11 04:00:39;;;;;;;;;;;;;;;;;;2202331;59;1941;-22
2023/05/11 04:03:09;;;;;;;;;;;;;;;;;;2202011;59;3195;-22
2023/05/11 04:05:40;;;;;;;;;;;;;;;;;;2202744;59;2170;-22
2023/05/11 04:08:10;;;;;;;;;;;;;;;;;;2201990;66;3433;-22
2023/05/11 04:10:40;;;;;;;;;;;;;;;;;;2203080;59;1992;-22
2023/05/11 04:13:11;;;;;;;;;;;;;;;;;;2201718;59;2272;-22
2023/05/11 04:15:41;;;;;;;;;;;;;;;;;;2203294;66;2475;-22
2023/05/11 04:18:17;;;;;;;;;;;;;;;;;;2205635;59;2945;-22
2023/05/11 04:20:47;;;;;;;;;;;;;;;;;;2204743;59;3194;-22
2023/05/11 04:23:18;;;;;;;;;;;;;;;;;;2203377;66;1994;-22
2023/05/11 04:25:54;;;;;;;;;;;;;;;;;;2203192;66;2698;-22
2023/05/11 04:28:26;;;;;;;;;;;;;;;;;;2203122;66;2818;-22
2023/05/11 04:30:57;;;;;;;;;;;;;;;;;;2203674;66;3061;-21
2023/05/11 04:33:30;;;;;;;;;;;;;;;;;;2201478;66;2048;-21
2023/05/11 04:36:00;;;;;;;;;;;;;;;;;;2202462;66;2695;-21
2023/05/11 04:38:30;;;;;;;;;;;;;;;;;;2202316;58;3281;-21
2023/05/11 04:41:04;;;;;;;;;;;;;;;;;;2203162;66;2860;-21
2023/05/11 04:43:34;;;;;;;;;;;;;;;;;;2203692;66;2347;-22
2023/05/11 04:46:05;;;;;;;;;;;;;;;;;;2204439;66;3668;-21
2023/05/11 04:48:35;;;;;;;;;;;;;;;;;;2202937;66;2729;-21
2023/05/11 04:51:05;;;;;;;;;;;;;;;;;;2204302;66;2934;-22
2023/05/11 04:53:42;;;;;;;;;;;;;;;;;;2202090;66;2276;-22
2023/05/11 04:56:12;;;;;;;;;;;;;;;;;;2202575;66;3040;-21
2023/05/11 04:58:42;;;;;;;;;;;;;;;;;;2202936;59;2842;-21
2023/05/11 05:01:12;;;;;;;;;;;;;;;;;;2203029;58;2486;-21
2023/05/11 05:03:43;;;;;;;;;;;;;;;;;;2203686;59;2989;-21
2023/05/11 05:06:13;;;;;;;;;;;;;;;;;;2203415;66;2507;-21
2023/05/11 05:08:43;;;;;;;;;;;;;;;;;;2202727;59;2458;-21
2023/05/11 05:11:16;;;;;;;;;;;;;;;;;;2202494;66;2630;-21
2023/05/11 05:13:47;;;;;;;;;;;;;;;;;;2202616;66;2999;-21
2023/05/11 05:16:17;;;;;;;;;;;;;;;;;;2202493;66;2676;-21
2023/05/11 05:18:47;;;;;;;;;;;;;;;;;;2202587;59;3241;-21
2023/05/11 05:21:17;;;;;;;;;;;;;;;;;;2201907;59;2601;-21
2023/05/11 05:23:47;;;;;;;;;;;;;;;;;;2202374;66;2510;-21
2023/05/11 05:26:18;;;;;;;;;;;;;;;;;;2202484;66;2276;-21
2023/05/11 05:28:48;;;;;;;;;;;;;;;;;;2202802;66;2328;-21
2023/05/11 05:31:18;;;;;;;;;;;;;;;;;;2202138;66;3576;-21
2023/05/11 05:33:48;;;;;;;;;;;;;;;;;;2199994;59;2179;-21
2023/05/11 05:36:18;;;;;;;;;;;;;;;;;;2205606;66;2086;-21
2023/05/11 05:38:49;;;;;;;;;;;;;;;;;;2203927;59;2233;-21
2023/05/11 05:41:21;;;;;;;;;;;;;;;;;;2205205;66;2726;-21
2023/05/11 05:43:51;;;;;;;;;;;;;;;;;;2203356;66;3268;-21
2023/05/11 05:46:21;;;;;;;;;;;;;;;;;;2202768;66;2908;-21
2023/05/11 05:48:51;;;;;;;;;;;;;;;;;;2202337;59;3192;-21
2023/05/11 05:51:21;;;;;;;;;;;;;;;;;;2204009;59;2222;-21
2023/05/11 05:53:52;;;;;;;;;;;;;;;;;;2203242;59;2716;-21
2023/05/11 05:56:22;;;;;;;;;;;;;;;;;;2204786;66;2978;-21
2023/05/11 05:58:52;;;;;;;;;;;;;;;;;;2204096;59;3160;-21
2023/05/11 06:01:22;;;;;;;;;;;;;;;;;;2203429;59;2583;-21
2023/05/11 06:03:53;;;;;;;;;;;;;;;;;;2204137;59;2720;-21
2023/05/11 06:06:23;;;;;;;;;;;;;;;;;;2204291;66;2521;-21
2023/05/11 06:08:53;;;;;;;;;;;;;;;;;;2202837;59;2339;-21
2023/05/11 06:11:24;;;;;;;;;;;;;;;;;;2199905;59;2048;-21
2023/05/11 06:13:54;;;;;;;;;;;;;;;;;;2201400;66;2074;-21
2023/05/11 06:16:25;;;;;;;;;;;;;;;;;;2200943;66;3123;-21
2023/05/11 06:18:55;;;;;;;;;;;;;;;;;;2199090;59;2979;-21
2023/05/11 06:21:26;;;;;;;;;;;;;;;;;;2204767;59;2600;-22
2023/05/11 06:23:56;;;;;;;;;;;;;;;;;;2205384;59;2406;-21
2023/05/11 06:26:27;;;;;;;;;;;;;;;;;;2204932;66;2535;-21
2023/05/11 06:28:57;;;;;;;;;;;;;;;;;;2203106;66;2572;-21
2023/05/11 06:31:28;;;;;;;;;;;;;;;;;;2204007;66;2130;-21
2023/05/11 06:33:58;;;;;;;;;;;;;;;;;;2202050;66;2502;-21
2023/05/11 06:36:28;;;;;;;;;;;;;;;;;;2204372;66;2895;-21
2023/05/11 06:38:58;;;;;;;;;;;;;;;;;;2204900;58;3081;-21
2023/05/11 06:41:29;;;;;;;;;;;;;;;;;;2201818;59;2365;-21
2023/05/11 06:43:59;;;;;;;;;;;;;;;;;;2203840;59;2476;-21
2023/05/11 06:46:29;;;;;;;;;;;;;;;;;;2203030;66;1795;-21
2023/05/11 06:49:00;;;;;;;;;;;;;;;;;;2203467;66;1285;-21
2023/05/11 06:51:30;;;;;;;;;;;;;;;;;;2202100;59;2072;-21
2023/05/11 06:54:01;;;;;;;;;;;;;;;;;;2202393;66;2563;-21
2023/05/11 06:56:32;;;;;;;;;;;;;;;;;;2205935;66;1594;-21
2023/05/11 06:59:03;;;;;;;;;;;;;;;;;;2203826;59;2280;-21
2023/05/11 07:01:33;;;;;;;;;;;;;;;;;;2205833;59;1655;-21
2023/05/11 07:04:03;;;;;;;;;;;;;;;;;;2201383;59;2608;-21
2023/05/11 07:06:34;;;;;;;;;;;;;;;;;;2205930;66;1265;-21
2023/05/11 07:09:05;;;;;;;;;;;;;;;;;;2203205;66;1280;-21
2023/05/11 07:11:36;;;;;;;;;;;;;;;;;;2204489;66;1815;-21
2023/05/11 07:14:07;;;;;;;;;;;;;;;;;;2204867;66;1992;-22
2023/05/11 07:16:41;;;;;;;;;;;;;;;;;;2203550;66;1632;-22
2023/05/11 07:19:11;;;;;;;;;;;;;;;;;;2203239;59;1812;-21
2023/05/11 07:21:41;;;;;;;;;;;;;;;;;;2206882;59;1157;-21
2023/05/11 07:24:12;;;;;;;;;;;;;;;;;;2203347;66;2192;-21
2023/05/11 07:26:42;;;;;;;;;;;;;;;;;;2205650;66;1213;-21
2023/05/11 07:29:12;;;;;;;;;;;;;;;;;;2203450;66;1260;-21
2023/05/11 07:31:42;;;;;;;;;;;;;;;;;;2203789;66;1698;-21
2023/05/11 07:34:13;;;;;;;;;;;;;;;;;;2204186;58;2595;-21
2023/05/11 07:36:43;;;;;;;;;;;;;;;;;;2203537;66;1165;-21
2023/05/11 07:39:15;;;;;;;;;;;;;;;;;;2205255;58;2080;-21
2023/05/11 07:41:46;;;;;;;;;;;;;;;;;;2204724;66;1211;-21
2023/05/11 07:44:16;;;;;;;;;;;;;;;;;;2201330;59;2862;-21
2023/05/11 07:46:46;;;;;;;;;;;;;;;;;;2204820;66;1193;-21
2023/05/11 07:49:20;;;;;;;;;;;;;;;;;;2202835;66;1274;-21
2023/05/11 07:51:51;;;;;;;;;;;;;;;;;;2203730;59;1336;-21
2023/05/11 07:54:21;;;;;;;;;;;;;;;;;;2204977;59;2167;-21
2023/05/11 07:56:52;;;;;;;;;;;;;;;;;;2204625;66;1320;-21
2023/05/11 07:59:22;;;;;;;;;;;;;;;;;;2203391;58;2281;-21
2023/05/11 08:01:52;;;;;;;;;;;;;;;;;;2202759;59;1327;-21
2023/05/11 08:04:23;;;;;;;;;;;;;;;;;;2201883;59;1832;-21
2023/05/11 08:06:53;;;;;;;;;;;;;;;;;;2205220;66;1130;-21
2023/05/11 08:09:23;;;;;;;;;;;;;;;;;;2201245;66;2037;-22
2023/05/11 08:11:55;;;;;;;;;;;;;;;;;;2204106;66;1331;-21
2023/05/11 08:14:26;;;;;;;;;;;;;;;;;;2202664;66;1933;-21
2023/05/11 08:16:56;;;;;;;;;;;;;;;;;;2201653;66;1301;-21
2023/05/11 08:19:26;;;;;;;;;;;;;;;;;;2199664;59;2021;-21
2023/05/11 08:21:56;;;;;;;;;;;;;;;;;;2200217;59;2296;-22
2023/05/11 08:24:26;;;;;;;;;;;;;;;;;;2201832;66;2461;-21
2023/05/11 08:26:57;;;;;;;;;;;;;;;;;;2201711;66;1302;-22
2023/05/11 08:29:27;;;;;;;;;;;;;;;;;;2202533;59;2309;-22
2023/05/11 08:31:57;;;;;;;;;;;;;;;;;;2200671;66;2569;-21
2023/05/11 08:34:27;;;;;;;;;;;;;;;;;;2202399;66;1984;-21
2023/05/11 08:37:00;;;;;;;;;;;;;;;;;;2201119;66;2228;-22
2023/05/11 08:39:32;;;;;;;;;;;;;;;;;;2206759;58;1778;-22
2023/05/11 08:42:04;;;;;;;;;;;;;;;;;;2204628;66;2375;-22
2023/05/11 08:44:36;;;;;;;;;;;;;;;;;;2204608;66;2921;-22
2023/05/11 08:47:10;;;;;;;;;;;;;;;;;;2204566;66;3572;-22
2023/05/11 08:49:40;;;;;;;;;;;;;;;;;;2202636;66;2765;-22
2023/05/11 08:52:12;;;;;;;;;;;;;;;;;;2202945;59;2047;-22
2023/05/11 08:54:42;;;;;;;;;;;;;;;;;;2202203;59;2774;-22
2023/05/11 08:57:13;;;;;;;;;;;;;;;;;;2201290;66;2342;-22
2023/05/11 08:59:44;;;;;;;;;;;;;;;;;;2204434;59;2557;-22
2023/05/11 09:02:17;;;;;;;;;;;;;;;;;;2201453;59;3262;-22
2023/05/11 09:04:48;;;;;;;;;;;;;;;;;;2203590;59;2751;-22
2023/05/11 09:07:18;;;;;;;;;;;;;;;;;;2199445;59;2457;-22
2023/05/11 09:09:48;;;;;;;;;;;;;;;;;;2199894;59;3283;-22
2023/05/11 09:12:19;;;;;;;;;;;;;;;;;;2201219;59;3105;-22
2023/05/11 09:14:51;;;;;;;;;;;;;;;;;;2200718;59;3178;-22
2023/05/11 09:17:24;;;;;;;;;;;;;;;;;;2201166;59;2994;-21
2023/05/11 09:19:58;;;;;;;;;;;;;;;;;;2200540;59;3430;-22
2023/05/11 09:22:30;;;;;;;;;;;;;;;;;;2200922;59;2872;-22
2023/05/11 09:25:01;;;;;;;;;;;;;;;;;;2199288;66;3223;-21
2023/05/11 09:27:31;;;;;;;;;;;;;;;;;;2195847;59;2192;-22
2023/05/11 09:30:08;;;;;;;;;;;;;;;;;;2200783;66;2674;-21
2023/05/11 09:33:06;;;;;;;;;;;;;;;;;;2200605;66;2829;-22
2023/05/11 09:35:36;;;;;;;;;;;;;;;;;;2201725;66;2267;-21
2023/05/11 09:38:06;;;;;;;;;;;;;;;;;;2201292;59;2535;-21
2023/05/11 09:40:55;;;;;;;;;;;;;;;;;;2201895;66;3306;-21
2023/05/11 09:43:26;;;;;;;;;;;;;;;;;;2201926;66;2289;-21
2023/05/11 09:46:00;;;;;;;;;;;;;;;;;;2204071;66;2548;-21
2023/05/11 09:48:34;;;;;;;;;;;;;;;;;;2202858;66;2107;-21
2023/05/11 09:51:05;;;;;;;;;;;;;;;;;;2201731;59;2797;-21
2023/05/11 09:53:45;;;;;;;;;;;;;;;;;;2201349;66;2287;-21
2023/05/11 09:56:15;;;;;;;;;;;;;;;;;;2201089;66;2917;-21
2023/05/11 09:58:53;;;;;;;;;;;;;;;;;;2202368;59;2770;-21
2023/05/11 10:01:28;;;;;;;;;;;;;;;;;;2203195;58;2737;-21
2023/05/11 10:04:03;;;;;;;;;;;;;;;;;;2201410;59;2418;-22
2023/05/11 10:06:43;;;;;;;;;;;;;;;;;;2204973;66;2039;-22
2023/05/11 10:09:17;;;;;;;;;;;;;;;;;;2202932;66;2500;-22
2023/05/11 10:11:48;;;;;;;;;;;;;;;;;;2202574;66;2183;-22
2023/05/11 10:14:18;;;;;;;;;;;;;;;;;;2201926;59;2552;-23
2023/05/11 10:16:50;;;;;;;;;;;;;;;;;;2202841;66;2991;-22
2023/05/11 10:19:21;;;;;;;;;;;;;;;;;;2201490;59;2655;-22
2023/05/11 10:21:51;;;;;;;;;;;;;;;;;;2204897;59;2599;-22
2023/05/11 10:24:21;;;;;;;;;;;;;;;;;;2201709;58;2711;-22
2023/05/11 10:26:53;;;;;;;;;;;;;;;;;;2201584;67;2529;-22
2023/05/11 10:29:23;;;;;;;;;;;;;;;;;;2203437;59;3038;-22
2023/05/11 10:31:55;;;;;;;;;;;;;;;;;;2201770;66;2560;-22
2023/05/11 10:34:27;;;;;;;;;;;;;;;;;;2201387;59;2494;-22
2023/05/11 10:36:59;;;;;;;;;;;;;;;;;;2202883;66;2612;-22
2023/05/11 10:39:29;;;;;;;;;;;;;;;;;;2203800;58;2521;-22
2023/05/11 10:42:02;;;;;;;;;;;;;;;;;;2203472;66;2451;-22
2023/05/11 10:44:42;;;;;;;;;;;;;;;;;;2201400;59;1673;-22
2023/05/11 10:47:41;;;;;;;;;;;;;;;;;;2202036;59;1812;-22
2023/05/11 10:50:15;;;;;;;;;;;;;;;;;;2202791;66;2502;-22
2023/05/11 10:52:47;;;;;;;;;;;;;;;;;;2202852;58;2313;-22
2023/05/11 10:55:35;;;;;;;;;;;;;;;;;;2202159;59;2793;-22
2023/05/11 10:58:09;;;;;;;;;;;;;;;;;;2201004;59;2862;-22
2023/05/11 11:01:02;;;;;;;;;;;;;;;;;;2202070;59;2492;-22
2023/05/11 11:03:32;;;;;;;;;;;;;;;;;;2202038;59;2441;-22
2023/05/11 11:06:02;;;;;;;;;;;;;;;;;;2201767;66;2477;-22
2023/05/11 11:08:52;;;;;;;;;;;;;;;;;;2202145;66;2795;-22
2023/05/11 11:11:46;;;;;;;;;;;;;;;;;;2201966;59;2905;-22
2023/05/11 11:14:18;;;;;;;;;;;;;;;;;;2198798;59;2573;-22
2023/05/11 11:17:07;;;;;;;;;;;;;;;;;;2204595;64;1642;-22
2023/05/11 11:19:37;;;;;;;;;;;;;;;;;;2203581;59;1949;-22
2023/05/11 11:22:26;;;;;;;;;;;;;;;;;;2203831;59;4138;-22
2023/05/11 11:24:56;;;;;;;;;;;;;;;;;;2204972;66;2915;-22
2023/05/11 11:27:39;;;;;;;;;;;;;;;;;;2203140;66;2431;-22
2023/05/11 11:30:18;;;;;;;;;;;;;;;;;;2203233;58;2102;-22
2023/05/11 11:32:52;;;;;;;;;;;;;;;;;;2202567;59;3095;-22
2023/05/11 11:35:41;;;;;;;;;;;;;;;;;;2200913;59;2290;-22
2023/05/11 11:38:18;;;;;;;;;;;;;;;;;;2202396;58;2177;-22
2023/05/11 11:40:51;;;;;;;;;;;;;;;;;;2202942;66;2311;-22
2023/05/11 11:43:23;;;;;;;;;;;;;;;;;;2203628;66;2963;-21
2023/05/11 11:45:58;;;;;;;;;;;;;;;;;;2203034;66;1919;-21
2023/05/11 11:48:34;;;;;;;;;;;;;;;;;;2202630;66;2880;-21
2023/05/11 11:51:12;;;;;;;;;;;;;;;;;;2202219;59;2655;-21
2023/05/11 11:53:44;;;;;;;;;;;;;;;;;;2203010;59;2947;-21
2023/05/11 11:56:14;;;;;;;;;;;;;;;;;;2202516;59;2858;-21
2023/05/11 11:58:44;;;;;;;;;;;;;;;;;;2198635;59;3367;-21
2023/05/11 12:01:18;;;;;;;;;;;;;;;;;;2203109;59;2034;-21
2023/05/11 12:04:11;;;;;;;;;;;;;;;;;;2202891;59;2947;-21
2023/05/11 12:06:43;;;;;;;;;;;;;;;;;;2201554;66;2849;-21
2023/05/11 12:09:16;;;;;;;;;;;;;;;;;;2202054;66;2129;-21
2023/05/11 12:11:47;;;;;;;;;;;;;;;;;;2204530;66;2102;-21
2023/05/11 12:14:19;;;;;;;;;;;;;;;;;;2203608;66;2782;-23
2023/05/11 12:17:02;;;;;;;;;;;;;;;;;;2202990;59;3011;-23
2023/05/11 12:19:32;;;;;;;;;;;;;;;;;;2204080;59;2035;-25
2023/05/11 12:22:03;;;;;;;;;;;;;;;;;;2202821;59;3039;-24
2023/05/11 12:24:33;;;;;;;;;;;;;;;;;;2203482;66;2933;-24
2023/05/11 12:27:03;;;;;;;;;;;;;;;;;;2203058;66;3181;-25
2023/05/11 12:29:34;;;;;;;;;;;;;;;;;;2203749;66;2308;-25
2023/05/11 12:32:04;;;;;;;;;;;;;;;;;;2202269;66;2666;-25
2023/05/11 12:34:34;;;;;;;;;;;;;;;;;;2201448;66;2797;-25
2023/05/11 12:37:05;;;;;;;;;;;;;;;;;;2201010;59;2808;-25
2023/05/11 12:39:36;;;;;;;;;;;;;;;;;;2202243;58;2293;-25
2023/05/11 12:42:06;;;;;;;;;;;;;;;;;;2202328;66;2691;-24
2023/05/11 12:44:36;;;;;;;;;;;;;;;;;;2202806;66;3245;-25
2023/05/11 12:47:09;;;;;;;;;;;;;;;;;;2201962;66;2907;-25
2023/05/11 12:49:41;;;;;;;;;;;;;;;;;;2202811;54;3561;-26
2023/05/11 12:52:12;;;;;;;;;;;;;;;;;;2199432;59;3514;-26
2023/05/11 12:54:47;;;;;;;;;;;;;;;;;;2203368;59;2895;-26
2023/05/11 12:57:22;;;;;;;;;;;;;;;;;;2201598;59;2581;-26
2023/05/11 13:00:11;;;;;;;;;;;;;;;;;;2198330;59;2660;-26
2023/05/11 13:02:48;;;;;;;;;;;;;;;;;;2192280;58;2526;-26
2023/05/11 13:05:28;;;;;;;;;;;;;;;;;;2196719;59;2196;-26
2023/05/11 13:07:59;;;;;;;;;;;;;;;;;;2199209;66;2641;-26
2023/05/11 13:10:29;;;;;;;;;;;;;;;;;;2196917;59;2780;-26
2023/05/11 13:13:00;;;;;;;;;;;;;;;;;;2202010;66;1994;-26
2023/05/11 13:15:30;;;;;;;;;;;;;;;;;;2201931;59;2097;-26
2023/05/11 13:18:02;;;;;;;;;;;;;;;;;;2204072;54;3710;-20
2023/05/11 13:20:33;;;;;;;;;;;;;;;;;;2203592;59;1680;-19
2023/05/11 13:23:08;;;;;;;;;;;;;;;;;;2205817;58;2472;-19
2023/05/11 13:25:44;;;;;;;;;;;;;;;;;;2205271;59;3098;-19
2023/05/11 13:28:15;;;;;;;;;;;;;;;;;;2200278;59;2834;-20
2023/05/11 13:30:46;;;;;;;;;;;;;;;;;;2199390;59;2283;-19
2023/05/11 13:33:17;;;;;;;;;;;;;;;;;;2198565;59;3286;-19
2023/05/11 13:35:47;;;;;;;;;;;;;;;;;;2201707;59;3346;-19
2023/05/11 13:38:17;;;;;;;;;;;;;;;;;;2200283;58;2838;-19
2023/05/11 13:40:48;;;;;;;;;;;;;;;;;;2202856;59;1973;-19
2023/05/11 13:43:18;;;;;;;;;;;;;;;;;;2201185;59;2567;-19
2023/05/11 13:45:54;;;;;;;;;;;;;;;;;;2202844;66;3038;-19
2023/05/11 13:48:24;;;;;;;;;;;;;;;;;;2201642;59;2332;-19
2023/05/11 13:50:55;;;;;;;;;;;;;;;;;;2201756;59;2381;-19
2023/05/11 13:53:25;;;;;;;;;;;;;;;;;;2201322;66;3065;-19
2023/05/11 13:55:55;;;;;;;;;;;;;;;;;;2208255;59;2328;-19
2023/05/11 13:58:25;;;;;;;;;;;;;;;;;;2202605;59;2337;-19
2023/05/11 14:00:56;;;;;;;;;;;;;;;;;;2201751;59;2151;-19
2023/05/11 14:03:29;;;;;;;;;;;;;;;;;;2204798;59;2332;-19
2023/05/11 14:05:59;;;;;;;;;;;;;;;;;;2200967;59;2677;-19
2023/05/11 14:08:29;;;;;;;;;;;;;;;;;;2203499;59;2614;-20
2023/05/11 14:11:00;;;;;;;;;;;;;;;;;;2202035;66;3096;-20
2023/05/11 14:13:30;;;;;;;;;;;;;;;;;;2202752;59;2407;-19
2023/05/11 14:16:01;;;;;;;;;;;;;;;;;;2201151;59;2267;-19
2023/05/11 14:18:31;;;;;;;;;;;;;;;;;;2201834;59;2920;-19
2023/05/11 14:21:01;;;;;;;;;;;;;;;;;;2201769;59;1986;-20
2023/05/11 14:23:31;;;;;;;;;;;;;;;;;;2200933;59;3282;-19
2023/05/11 14:26:02;;;;;;;;;;;;;;;;;;2203765;66;2063;-19
2023/05/11 14:28:33;;;;;;;;;;;;;;;;;;2207931;66;2967;-19
2023/05/11 14:31:03;;;;;;;;;;;;;;;;;;2203688;66;2503;-19
2023/05/11 14:33:34;;;;;;;;;;;;;;;;;;2202747;59;3001;-19
2023/05/11 14:36:04;;;;;;;;;;;;;;;;;;2201040;59;3168;-19
2023/05/11 14:38:34;;;;;;;;;;;;;;;;;;2199827;58;2621;-19
2023/05/11 14:41:04;;;;;;;;;;;;;;;;;;2199642;59;2217;-19
2023/05/11 14:43:35;;;;;;;;;;;;;;;;;;2200985;59;2396;-19
2023/05/11 14:46:05;;;;;;;;;;;;;;;;;;2201681;59;2093;-19
2023/05/11 14:48:36;;;;;;;;;;;;;;;;;;2203907;59;3169;-19
2023/05/11 14:51:06;;;;;;;;;;;;;;;;;;2200791;59;2734;-19
2023/05/11 14:53:37;;;;;;;;;;;;;;;;;;2200752;59;2543;-19
2023/05/11 14:56:07;;;;;;;;;;;;;;;;;;2203027;59;2128;-19
2023/05/11 14:58:37;;;;;;;;;;;;;;;;;;2203531;59;2143;-21
2023/05/11 15:01:08;;;;;;;;;;;;;;;;;;2206479;59;2130;-21
2023/05/11 15:03:38;;;;;;;;;;;;;;;;;;2200091;59;3057;-21
2023/05/11 15:06:08;;;;;;;;;;;;;;;;;;2200787;59;3019;-21
2023/05/11 15:08:38;;;;;;;;;;;;;;;;;;2200637;59;2259;-21
2023/05/11 15:11:08;;;;;;;;;;;;;;;;;;2202699;59;2057;-21
2023/05/11 15:13:39;;;;;;;;;;;;;;;;;;2200933;59;1985;-21
2023/05/11 15:16:09;;;;;;;;;;;;;;;;;;2203298;59;2493;-21
2023/05/11 15:18:40;;;;;;;;;;;;;;;;;;2203997;58;2301;-21
2023/05/11 15:21:10;;;;;;;;;;;;;;;;;;2202162;59;2123;-21
2023/05/11 15:23:40;;;;;;;;;;;;;;;;;;2202725;59;3029;-21
2023/05/11 15:26:11;;;;;;;;;;;;;;;;;;2197730;59;2187;-21
2023/05/11 15:28:41;;;;;;;;;;;;;;;;;;2202327;59;2649;-21
2023/05/11 15:31:14;;;;;;;;;;;;;;;;;;2201602;59;2441;-21
2023/05/11 15:33:45;;;;;;;;;;;;;;;;;;2200788;59;2246;-21
2023/05/11 15:36:15;;;;;;;;;;;;;;;;;;2200877;59;2612;-21
2023/05/11 15:38:45;;;;;;;;;;;;;;;;;;2200262;59;3166;-21
2023/05/11 15:41:15;;;;;;;;;;;;;;;;;;2200659;59;2216;-21
2023/05/11 15:43:46;;;;;;;;;;;;;;;;;;2200454;59;2458;-21
2023/05/11 15:46:16;;;;;;;;;;;;;;;;;;2200135;59;2034;-21
2023/05/11 15:48:46;;;;;;;;;;;;;;;;;;2201044;59;2849;-21
2023/05/11 15:51:17;;;;;;;;;;;;;;;;;;2201397;59;2078;-21
2023/05/11 15:53:47;;;;;;;;;;;;;;;;;;2201266;59;2309;-21
2023/05/11 15:56:17;;;;;;;;;;;;;;;;;;2198296;59;3093;-21
2023/05/11 15:58:47;;;;;;;;;;;;;;;;;;2201034;59;3028;-21
2023/05/11 16:01:18;;;;;;;;;;;;;;;;;;2200876;59;3009;-21
2023/05/11 16:03:48;;;;;;;;;;;;;;;;;;2200535;59;2746;-21
2023/05/11 16:06:18;;;;;;;;;;;;;;;;;;2201468;59;2156;-21
2023/05/11 16:08:49;;;;;;;;;;;;;;;;;;2203237;59;2180;-21
2023/05/11 16:11:20;;;;;;;;;;;;;;;;;;2201038;59;2109;-21
2023/05/11 16:13:50;;;;;;;;;;;;;;;;;;2202618;59;2416;-21
2023/05/11 16:16:21;;;;;;;;;;;;;;;;;;2201613;59;2070;-21
2023/05/11 16:18:54;;;;;;;;;;;;;;;;;;2201307;59;2188;-21
2023/05/11 16:21:24;;;;;;;;;;;;;;;;;;2203129;59;2164;-21
2023/05/11 16:23:54;;;;;;;;;;;;;;;;;;2199846;59;3110;-21
2023/05/11 16:26:25;;;;;;;;;;;;;;;;;;2200715;59;2453;-22
2023/05/11 16:28:55;;;;;;;;;;;;;;;;;;2202460;59;2222;-21
2023/05/11 16:31:26;;;;;;;;;;;;;;;;;;2199753;59;2481;-21
2023/05/11 16:33:56;;;;;;;;;;;;;;;;;;2200370;59;2619;-21
2023/05/11 16:36:27;;;;;;;;;;;;;;;;;;2200737;59;2873;-21
2023/05/11 16:38:58;;;;;;;;;;;;;;;;;;2200825;59;3023;-21
2023/05/11 16:41:28;;;;;;;;;;;;;;;;;;2201539;59;2503;-21
2023/05/11 16:43:58;;;;;;;;;;;;;;;;;;2200414;59;2181;-21
2023/05/11 16:46:29;;;;;;;;;;;;;;;;;;2201618;59;2363;-22
2023/05/11 16:48:59;;;;;;;;;;;;;;;;;;2201189;59;1825;-22
2023/05/11 16:51:29;;;;;;;;;;;;;;;;;;2201360;59;2148;-22
2023/05/11 16:53:59;;;;;;;;;;;;;;;;;;2200904;59;2456;-22
2023/05/11 16:56:30;;;;;;;;;;;;;;;;;;2200335;59;2579;-22
2023/05/11 16:59:00;;;;;;;;;;;;;;;;;;2201702;59;2243;-22
2023/05/11 17:01:31;;;;;;;;;;;;;;;;;;2200086;59;2368;-22
2023/05/11 17:04:01;;;;;;;;;;;;;;;;;;2200785;59;1939;-23
2023/05/11 17:06:31;;;;;;;;;;;;;;;;;;2198963;59;2510;-22
2023/05/11 17:09:02;;;;;;;;;;;;;;;;;;2202208;59;1940;-23
2023/05/11 17:11:32;;;;;;;;;;;;;;;;;;2201683;59;2374;-22
2023/05/11 17:14:02;;;;;;;;;;;;;;;;;;2200088;59;2544;-22
2023/05/11 17:16:33;;;;;;;;;;;;;;;;;;2202547;59;1955;-22
2023/05/11 17:19:03;;;;;;;;;;;;;;;;;;2201457;59;2937;-23
2023/05/11 17:21:33;;;;;;;;;;;;;;;;;;2202307;59;2908;-22
2023/05/11 17:24:04;;;;;;;;;;;;;;;;;;2200933;59;2215;-22
2023/05/11 17:26:34;;;;;;;;;;;;;;;;;;2202337;58;1953;-22
2023/05/11 17:29:04;;;;;;;;;;;;;;;;;;2200495;59;2073;-22
2023/05/11 17:31:34;;;;;;;;;;;;;;;;;;2202610;59;2750;-22
2023/05/11 17:34:06;;;;;;;;;;;;;;;;;;2200367;59;2121;-22
2023/05/11 17:36:37;;;;;;;;;;;;;;;;;;2202133;59;2079;-22
2023/05/11 17:39:08;;;;;;;;;;;;;;;;;;2201418;59;2628;-22